Time;durP1;ratioP1;P1;durP2;ratioP2;P2;SDS_P1;SDS_P2;PMS_P1;PMS_P2;Temp;Humidity;BMP_temperature;BMP_pressure;BME280_temperature;BME280_humidity;BME280_pressure;Samples;Min_cycle;Max_cycle;Signal;HPM_P1;HPM_P2
2021/04/04 00:01:21;;;;;;;9.55;7.85;;;8.00;50.70;;;;;;4989103;28;20041;-62
2021/04/04 00:03:47;;;;;;;13.38;8.80;;;8.00;50.80;;;;;;4988429;28;20211;-62
2021/04/04 00:06:13;;;;;;;15.63;9.07;;;8.00;50.80;;;;;;4971842;28;20113;-62
2021/04/04 00:08:40;;;;;;;13.27;8.77;;;8.00;50.90;;;;;;4988496;28;20134;-62
2021/04/04 00:11:06;;;;;;;10.38;8.13;;;8.00;51.00;;;;;;4971362;28;20452;-62
2021/04/04 00:13:33;;;;;;;10.57;8.07;;;7.90;50.80;;;;;;4988411;28;20042;-62
2021/04/04 00:15:59;;;;;;;15.35;8.63;;;7.90;50.90;;;;;;4988528;28;20053;-62
2021/04/04 00:18:25;;;;;;;13.18;8.05;;;7.80;50.70;;;;;;4971099;28;20519;-60
2021/04/04 00:20:51;;;;;;;11.50;8.20;;;7.80;50.80;;;;;;4988857;28;20121;-61
2021/04/04 00:23:17;;;;;;;11.45;8.27;;;7.80;50.90;;;;;;4988464;28;20042;-61
2021/04/04 00:25:43;;;;;;;12.18;8.77;;;7.70;51.30;;;;;;4988258;28;20088;-60
2021/04/04 00:28:09;;;;;;;11.98;8.77;;;7.70;50.80;;;;;;4988276;28;20042;-61
2021/04/04 00:30:35;;;;;;;13.10;8.55;;;7.70;50.80;;;;;;4988446;28;20042;-62
2021/04/04 00:33:01;;;;;;;13.27;10.15;;;7.60;50.70;;;;;;4988103;28;20458;-62
2021/04/04 00:35:27;;;;;;;10.75;8.23;;;7.60;50.70;;;;;;4987930;28;20045;-63
2021/04/04 00:37:54;;;;;;;12.88;8.20;;;7.60;50.80;;;;;;4988477;28;20071;-62
2021/04/04 00:40:26;;;;;;;11.55;7.90;;;7.50;50.70;;;;;;4988382;28;20046;-62
2021/04/04 00:42:52;;;;;;;11.68;8.15;;;7.50;50.80;;;;;;4988189;28;20056;-62
2021/04/04 00:45:26;;;;;;;12.10;9.23;;;7.50;50.70;;;;;;4988145;28;20061;-62
2021/04/04 00:47:52;;;;;;;;;;;7.40;50.60;;;;;;4988710;28;20045;-61
2021/04/04 00:50:21;;;;;;;10.88;8.13;;;7.40;50.60;;;;;;4987911;28;19996;-62
2021/04/04 00:52:47;;;;;;;13.18;8.23;;;7.30;50.30;;;;;;4988061;28;20050;-62
2021/04/04 00:55:16;;;;;;;13.18;8.68;;;7.30;50.40;;;;;;4987027;28;20034;-62
2021/04/04 00:57:43;;;;;;;10.48;8.00;;;7.20;50.30;;;;;;4988531;28;20093;-61
2021/04/04 01:00:13;;;;;;;9.55;6.93;;;7.20;50.40;;;;;;4988460;28;20050;-62
2021/04/04 01:02:41;;;;;;;12.13;9.23;;;7.20;50.50;;;;;;4987445;28;20048;-62
2021/04/04 01:05:11;;;;;;;13.07;9.55;;;7.20;50.60;;;;;;4987638;28;20477;-61
2021/04/04 01:07:38;;;;;;;11.40;7.72;;;7.10;50.50;;;;;;4987550;28;20046;-61
2021/04/04 01:10:07;;;;;;;11.00;8.57;;;7.10;50.50;;;;;;4987881;28;20034;-61
2021/04/04 01:12:51;;;;;;;11.77;8.25;;;7.10;50.60;;;;;;4987672;28;20042;-61
2021/04/04 01:15:22;;;;;;;13.02;7.75;;;7.10;50.70;;;;;;4970341;28;20092;-62
2021/04/04 01:17:51;;;;;;;11.55;7.18;;;7.00;50.50;;;;;;4987829;28;20047;-61
2021/04/04 01:20:24;;;;;;;9.85;7.25;;;7.00;50.50;;;;;;4987133;28;20041;-61
2021/04/04 01:23:28;;;;;;;13.90;7.37;;;7.00;50.60;;;;;;4970327;28;20041;-62
2021/04/04 01:26:01;;;;;;;12.75;8.85;;;6.90;50.40;;;;;;4987605;28;20303;-62
2021/04/04 01:28:34;;;;;;;9.93;8.38;;;6.90;50.40;;;;;;4987581;28;20130;-63
2021/04/04 01:31:00;;;;;;;14.18;8.32;;;6.90;50.40;;;;;;5000377;23;21195;-75
2021/04/04 01:33:30;;;;;;;12.40;8.13;;;6.80;50.30;;;;;;4981611;28;20082;-74
2021/04/04 01:35:58;;;;;;;10.43;7.97;;;6.80;50.90;;;;;;5000536;28;20036;-73
2021/04/04 01:38:27;;;;;;;12.15;8.15;;;6.70;50.20;;;;;;4989060;28;20034;-74
2021/04/04 01:41:00;;;;;;;10.57;7.90;;;6.70;50.30;;;;;;4989123;28;20042;-74
2021/04/04 01:43:27;;;;;;;14.30;8.35;;;6.60;50.20;;;;;;4990370;28;20042;-74
2021/04/04 01:45:54;;;;;;;13.65;8.13;;;6.70;50.40;;;;;;4986068;23;20057;-84
2021/04/04 01:48:20;;;;;;;14.23;7.93;;;6.60;50.30;;;;;;4993368;28;20528;-83
2021/04/04 01:51:37;;;;;;;12.43;8.63;;;6.60;50.30;;;;;;4978060;28;20508;-87
2021/04/04 01:56:04;;;;;;;10.73;7.97;;;6.60;50.50;;;;;;4993195;28;20061;-86
2021/04/04 02:00:36;;;;;;;10.68;7.85;;;6.50;50.20;;;;;;5009898;28;20072;-87
2021/04/04 02:09:24;;;;;;;11.32;7.55;;;6.40;49.90;;;;;;5007515;28;19920;-88
2021/04/04 02:14:00;;;;;;;9.55;7.15;;;6.40;49.80;;;;;;4951742;29;20179;-87
2021/04/04 05:39:25;;;;;;;9.98;6.43;;;4.40;48.40;;;;;;4880020;29;20037;-85
2021/04/04 05:41:56;;;;;;;9.18;6.32;;;4.30;48.20;;;;;;4860254;29;20053;-83
2021/04/04 05:44:30;;;;;;;8.10;5.75;;;4.30;48.30;;;;;;4871593;28;20638;-85
2021/04/04 05:51:23;;;;;;;;;;;4.30;48.50;;;;;;4970632;28;20042;-88
2021/04/04 06:03:43;;;;;;;13.25;7.25;;;4.30;48.60;;;;;;4972171;28;20065;-89
2021/04/04 07:05:00;;;;;;;8.88;7.93;;;5.90;50.20;;;;;;4971023;28;20051;-90
2021/04/04 07:08:35;;;;;;;12.75;7.90;;;6.10;50.30;;;;;;4971839;28;20429;-84
2021/04/04 07:12:09;;;;;;;11.63;7.25;;;6.30;50.50;;;;;;4958765;28;20043;-87
2021/04/04 07:15:13;;;;;;;13.65;8.48;;;6.40;50.50;;;;;;4939296;28;20043;-86
2021/04/04 07:18:33;;;;;;;8.85;7.82;;;6.60;50.80;;;;;;4888916;28;20131;-85
2021/04/04 07:22:34;;;;;;;13.00;8.18;;;6.60;50.70;;;;;;4973239;28;20039;-86
2021/04/04 07:26:17;;;;;;;10.30;7.38;;;6.80;50.90;;;;;;4973858;28;20039;-85
2021/04/04 07:41:51;;;;;;;12.23;7.85;;;7.20;51.30;;;;;;4918956;29;20031;-87
2021/04/04 07:53:40;;;;;;;15.15;7.65;;;7.60;52.20;;;;;;4888340;29;20577;-90
2021/04/04 08:49:18;;;;;;;14.90;8.55;;;9.30;52.60;;;;;;4738040;30;20713;-84
2021/04/04 08:52:12;;;;;;;13.93;7.82;;;9.30;52.60;;;;;;4775736;30;20524;-85
2021/04/04 08:54:41;;;;;;;13.15;8.40;;;9.40;52.80;;;;;;4814981;29;20514;-87
2021/04/04 08:57:07;;;;;;;10.88;8.50;;;9.40;52.80;;;;;;4851296;29;20108;-87
2021/04/04 08:59:36;;;;;;;14.18;8.82;;;9.30;52.60;;;;;;4938842;29;20502;-85
2021/04/04 09:02:06;;;;;;;13.48;8.88;;;9.40;52.80;;;;;;4913497;29;20036;-84
2021/04/04 09:04:35;;;;;;;13.43;8.63;;;9.40;52.80;;;;;;4896938;29;20044;-85
2021/04/04 09:07:03;;;;;;;18.25;8.88;;;9.40;52.70;;;;;;4910166;29;20508;-85
2021/04/04 09:14:55;;;;;;;17.52;8.60;;;9.40;52.60;;;;;;4855100;29;20125;-87
2021/04/04 09:17:53;;;;;;;10.32;8.35;;;9.50;52.70;;;;;;4853771;29;20097;-86
2021/04/04 09:20:38;;;;;;;15.45;9.15;;;9.50;52.60;;;;;;4857345;29;20044;-84
2021/04/04 09:23:05;;;;;;;12.80;7.80;;;9.60;52.80;;;;;;4857096;29;20248;-84
2021/04/04 09:25:35;;;;;;;12.98;8.77;;;9.60;52.70;;;;;;4856415;29;20049;-82
2021/04/04 09:28:06;;;;;;;14.93;7.68;;;9.60;52.70;;;;;;4871336;29;20045;-83
2021/04/04 09:30:38;;;;;;;10.50;9.02;;;9.70;52.80;;;;;;4855498;29;20045;-83
2021/04/04 09:33:05;;;;;;;16.48;8.60;;;9.70;52.80;;;;;;4863011;29;20053;-85
2021/04/04 09:35:32;;;;;;;18.20;9.45;;;9.70;52.70;;;;;;4852316;29;20513;-84
2021/04/04 09:38:13;;;;;;;11.85;9.05;;;9.70;52.70;;;;;;4855818;29;20053;-81
2021/04/04 09:40:44;;;;;;;12.60;8.55;;;9.80;52.80;;;;;;4855646;29;20041;-84
2021/04/04 09:43:15;;;;;;;13.07;8.27;;;9.80;52.80;;;;;;4860192;29;20350;-87
2021/04/04 09:45:43;;;;;;;13.75;9.43;;;9.80;52.70;;;;;;4862136;29;20052;-84
2021/04/04 09:48:25;;;;;;;13.35;9.15;;;9.90;52.80;;;;;;4925464;29;20039;-84
2021/04/04 09:51:13;;;;;;;16.42;10.15;;;9.90;52.80;;;;;;4947681;29;20043;-83
2021/04/04 09:53:44;;;;;;;22.98;13.52;;;10.00;53.10;;;;;;4931908;29;20074;-87
2021/04/04 09:56:10;;;;;;;24.48;14.18;;;10.00;53.10;;;;;;4930572;29;20506;-82
2021/04/04 09:58:41;;;;;;;23.50;14.55;;;10.10;53.40;;;;;;4929559;29;20039;-82
2021/04/04 10:01:17;;;;;;;21.25;13.40;;;10.20;53.70;;;;;;4930809;29;20518;-82
2021/04/04 10:04:07;;;;;;;23.88;13.68;;;10.20;53.80;;;;;;4953405;28;20034;-82
2021/04/04 10:06:35;;;;;;;26.92;13.65;;;10.30;54.00;;;;;;4948486;28;20054;-81
2021/04/04 10:09:05;;;;;;;24.27;13.52;;;10.30;53.80;;;;;;4954213;28;20105;-86
2021/04/04 10:19:56;;;;;;;22.38;13.90;;;10.50;54.10;;;;;;4986303;28;20034;-84
2021/04/04 10:22:23;;;;;;;24.17;13.82;;;10.50;54.00;;;;;;4955124;28;20042;-85
2021/04/04 10:24:49;;;;;;;21.67;13.93;;;10.60;54.10;;;;;;4972574;28;20034;-85
2021/04/04 10:27:36;;;;;;;20.77;13.50;;;10.60;54.10;;;;;;4956297;28;20045;-87
2021/04/04 10:30:15;;;;;;;18.33;13.07;;;10.60;54.00;;;;;;4956034;28;20046;-87
2021/04/04 10:32:47;;;;;;;;;;;10.70;54.20;;;;;;4974034;28;20049;-87
2021/04/04 10:35:35;;;;;;;21.67;13.02;;;10.70;54.10;;;;;;4973857;28;20395;-85
2021/04/04 10:38:06;;;;;;;19.58;11.48;;;10.80;54.10;;;;;;4950975;28;20039;-87
2021/04/04 10:40:50;;;;;;;20.13;13.55;;;10.80;54.10;;;;;;4973546;28;20043;-86
2021/04/04 10:43:19;;;;;;;22.08;12.80;;;10.80;54.00;;;;;;4977764;28;20482;-86
2021/04/04 10:45:57;;;;;;;20.98;16.00;;;10.90;54.10;;;;;;4955342;28;20505;-87
2021/04/04 10:48:23;;;;;;;25.67;19.10;;;10.90;54.10;;;;;;4973476;28;20137;-86
2021/04/04 10:50:50;;;;;;;24.70;21.38;;;11.00;54.20;;;;;;4969391;28;20042;-80
2021/04/04 10:53:17;;;;;;;26.48;21.85;;;11.00;54.20;;;;;;4963441;28;20498;-82
2021/04/04 10:55:45;;;;;;;23.40;20.52;;;11.10;54.30;;;;;;4985319;28;20114;-80
2021/04/04 10:58:27;;;;;;;28.33;21.65;;;11.10;54.20;;;;;;4988290;28;20042;-85
2021/04/04 11:00:55;;;;;;;25.77;20.48;;;11.20;54.30;;;;;;4980880;28;20101;-82
2021/04/04 11:03:21;;;;;;;21.63;19.38;;;11.20;54.20;;;;;;4954987;28;20061;-82
2021/04/04 11:05:48;;;;;;;22.80;19.88;;;11.20;54.10;;;;;;4971157;28;20113;-83
2021/04/04 11:08:16;;;;;;;29.38;18.83;;;11.20;54.10;;;;;;4969990;28;20042;-83
2021/04/04 11:10:42;;;;;;;24.50;19.35;;;11.30;54.20;;;;;;4969416;28;20042;-81
2021/04/04 11:13:09;;;;;;;23.13;17.55;;;11.30;54.10;;;;;;4986794;28;20129;-80
2021/04/04 11:15:37;;;;;;;28.35;18.33;;;11.40;54.20;;;;;;4969809;28;20039;-82
2021/04/04 11:18:16;;;;;;;26.38;17.67;;;11.40;54.10;;;;;;4970531;28;20042;-81
2021/04/04 11:20:45;;;;;;;21.83;17.60;;;11.40;54.00;;;;;;4954027;28;20034;-82
2021/04/04 11:23:16;;;;;;;19.13;16.30;;;11.50;54.10;;;;;;4969118;28;20093;-81
2021/04/04 11:25:43;;;;;;;25.00;17.38;;;11.60;54.20;;;;;;4987427;28;20137;-79
2021/04/04 11:28:22;;;;;;;27.42;18.05;;;11.60;54.10;;;;;;4954334;28;20709;-80
2021/04/04 11:30:49;;;;;;;24.95;16.65;;;11.60;54.00;;;;;;4954884;28;20070;-80
2021/04/04 11:33:20;;;;;;;19.58;16.63;;;11.70;54.10;;;;;;4987703;28;20046;-79
2021/04/04 11:36:02;;;;;;;22.20;17.48;;;11.70;54.10;;;;;;4987819;28;20043;-83
2021/04/04 11:38:32;;;;;;;16.95;14.90;;;11.80;54.10;;;;;;4969937;28;20140;-82
2021/04/04 11:41:23;;;;;;;16.83;14.98;;;11.80;54.10;;;;;;4973881;28;20049;-81
2021/04/04 11:44:17;;;;;;;19.58;14.80;;;11.90;54.10;;;;;;4958289;28;20043;-82
2021/04/04 11:53:04;;;;;;;20.92;15.18;;;12.00;54.10;;;;;;4931016;29;20050;-84
2021/04/04 11:56:52;;;;;;;17.17;13.57;;;12.10;54.10;;;;;;4818806;29;20582;-84
2021/04/04 12:00:16;;;;;;;19.05;14.13;;;12.10;53.90;;;;;;4842368;29;20051;-82
2021/04/04 12:03:01;;;;;;;15.35;13.35;;;12.20;54.00;;;;;;4929692;28;20066;-83
2021/04/04 12:05:37;;;;;;;15.10;13.50;;;12.20;54.00;;;;;;4972185;28;20054;-82
2021/04/04 12:08:06;;;;;;;22.25;13.43;;;12.30;54.20;;;;;;4956020;28;20038;-80
2021/04/04 12:10:37;;;;;;;22.42;13.98;;;12.40;54.20;;;;;;4956546;28;20548;-81
2021/04/04 12:13:15;;;;;;;18.08;14.88;;;12.40;54.20;;;;;;4955473;28;20384;-84
2021/04/04 12:15:42;;;;;;;20.35;14.15;;;12.40;54.10;;;;;;4956814;28;20039;-82
2021/04/04 12:18:09;;;;;;;18.85;13.02;;;12.50;54.20;;;;;;4956550;28;20046;-83
2021/04/04 12:20:39;;;;;;;18.77;13.35;;;12.50;54.10;;;;;;4952530;28;20037;-86
2021/04/04 12:23:13;;;;;;;23.77;12.35;;;12.60;54.20;;;;;;4971579;28;20034;-82
2021/04/04 12:25:39;;;;;;;22.52;13.35;;;12.60;54.20;;;;;;4973338;28;20378;-82
2021/04/04 12:28:09;;;;;;;23.77;14.75;;;12.70;54.40;;;;;;4974325;28;20229;-81
2021/04/04 12:30:36;;;;;;;19.27;14.10;;;12.80;54.50;;;;;;4957174;28;20038;-81
2021/04/04 12:33:12;;;;;;;18.85;14.07;;;12.90;54.70;;;;;;4973014;28;20054;-80
2021/04/04 12:35:39;;;;;;;19.58;15.00;;;12.90;54.70;;;;;;4973839;28;20154;-84
2021/04/04 12:43:18;;;;;;;20.33;14.07;;;13.10;54.90;;;;;;4950623;28;20102;-85
2021/04/04 12:45:48;;;;;;;18.45;13.35;;;13.20;54.90;;;;;;4951568;28;20045;-83
2021/04/04 12:48:19;;;;;;;17.23;12.90;;;13.20;54.80;;;;;;4946252;29;20047;-85
2021/04/04 12:51:00;;;;;;;22.33;13.57;;;13.30;55.00;;;;;;4931438;29;20126;-85
2021/04/04 12:53:28;;;;;;;16.30;13.63;;;13.40;55.10;;;;;;4942458;28;20509;-84
2021/04/04 12:55:54;;;;;;;17.25;13.73;;;13.40;55.00;;;;;;4952325;28;20050;-84
2021/04/04 12:58:33;;;;;;;15.10;13.30;;;13.50;55.10;;;;;;4948765;28;20141;-87
2021/04/04 13:00:59;;;;;;;17.67;13.07;;;13.60;55.10;;;;;;4948910;29;20533;-86
2021/04/04 13:03:33;;;;;;;12.82;11.52;;;13.70;55.30;;;;;;4938977;28;20043;-85
2021/04/04 13:05:59;;;;;;;15.98;11.52;;;13.80;55.30;;;;;;4931924;29;20087;-86
2021/04/04 13:08:29;;;;;;;16.20;11.63;;;13.90;55.40;;;;;;4949602;28;20036;-84
2021/04/04 13:10:57;;;;;;;16.10;12.27;;;13.90;55.20;;;;;;4952598;28;20279;-83
2021/04/04 13:13:34;;;;;;;14.52;11.60;;;14.00;55.30;;;;;;4946732;28;20430;-81
2021/04/04 13:16:06;;;;;;;15.95;11.73;;;14.10;55.30;;;;;;4941579;28;20058;-82
2021/04/04 13:18:55;;;;;;;13.65;11.00;;;14.20;55.40;;;;;;4947551;28;20117;-82
2021/04/04 13:21:23;;;;;;;12.98;11.45;;;14.30;55.40;;;;;;4969173;28;20053;-82
2021/04/04 13:24:08;;;;;;;14.35;11.20;;;14.40;55.40;;;;;;4955372;28;20073;-81
2021/04/04 13:26:36;;;;;;;13.90;11.25;;;14.50;55.50;;;;;;4971861;28;20144;-83
2021/04/04 13:29:06;;;;;;;15.35;11.35;;;14.50;55.30;;;;;;4988223;28;20077;-83
2021/04/04 13:31:34;;;;;;;15.93;10.80;;;14.60;55.30;;;;;;4988602;28;20038;-83
2021/04/04 13:34:14;;;;;;;11.23;10.02;;;14.70;55.40;;;;;;4971129;28;20125;-83
2021/04/04 13:36:46;;;;;;;11.70;10.13;;;14.80;55.40;;;;;;4955081;28;20489;-85
2021/04/04 13:39:18;;;;;;;16.33;10.45;;;14.90;55.40;;;;;;4954723;28;20409;-83
2021/04/04 13:41:45;;;;;;;12.45;10.00;;;15.10;55.60;;;;;;4971152;28;20042;-83
2021/04/04 13:44:14;;;;;;;16.77;11.35;;;15.20;55.70;;;;;;4970647;28;20208;-81
2021/04/04 13:46:50;;;;;;;17.00;10.48;;;15.20;55.50;;;;;;4970013;28;20274;-82
2021/04/04 13:49:21;;;;;;;12.43;9.77;;;15.40;55.70;;;;;;4988121;28;20039;-80
2021/04/04 13:51:50;;;;;;;15.13;10.55;;;15.50;55.80;;;;;;4970554;28;20517;-85
2021/04/04 13:54:16;;;;;;;12.70;9.20;;;15.60;55.70;;;;;;4971111;28;20046;-81
2021/04/04 13:56:50;;;;;;;16.05;9.98;;;15.70;55.80;;;;;;4990263;28;20366;-82
2021/04/04 13:59:16;;;;;;;15.40;10.38;;;15.90;55.90;;;;;;4970835;28;20054;-85
2021/04/04 14:01:50;;;;;;;16.88;10.10;;;16.00;56.00;;;;;;4970221;28;20042;-85
2021/04/04 14:04:24;;;;;;;14.13;10.30;;;16.10;56.00;;;;;;4970148;28;20125;-81
2021/04/04 14:07:02;;;;;;;12.63;9.48;;;16.20;56.00;;;;;;4969074;28;20097;-82
2021/04/04 14:09:30;;;;;;;11.80;9.25;;;16.30;56.00;;;;;;4987433;28;20034;-81
2021/04/04 14:11:57;;;;;;;15.23;9.10;;;16.50;56.20;;;;;;4987872;28;20109;-81
2021/04/04 14:14:24;;;;;;;11.13;8.52;;;16.60;56.20;;;;;;4987449;28;20038;-81
2021/04/04 14:16:56;;;;;;;12.10;9.02;;;16.70;56.20;;;;;;4988146;28;20074;-81
2021/04/04 14:19:24;;;;;;;11.82;8.68;;;16.80;56.30;;;;;;4987462;28;20049;-86
2021/04/04 14:21:51;;;;;;;12.52;7.55;;;16.90;56.30;;;;;;4970358;28;20207;-83
2021/04/04 14:24:17;;;;;;;30.33;12.40;;;17.10;56.40;;;;;;4954754;28;20477;-81
2021/04/04 14:26:43;;;;;;;26.30;12.82;;;17.20;56.00;;;;;;4988551;28;20641;-87
2021/04/04 14:29:12;;;;;;;22.40;12.40;;;17.20;55.70;;;;;;4971288;28;20066;-83
2021/04/04 14:31:39;;;;;;;15.43;10.90;;;17.20;55.80;;;;;;4954650;28;20081;-80
2021/04/04 14:34:07;;;;;;;24.38;11.60;;;17.40;56.50;;;;;;4972060;28;20561;-81
2021/04/04 14:36:34;;;;;;;24.20;11.70;;;17.50;56.70;;;;;;4956342;28;20030;-81
2021/04/04 14:39:02;;;;;;;16.33;10.70;;;17.70;57.10;;;;;;4954357;28;20493;-83
2021/04/04 14:41:31;;;;;;;24.20;11.40;;;17.90;57.20;;;;;;4937423;28;20038;-82
2021/04/04 14:44:13;;;;;;;21.42;11.23;;;18.00;57.10;;;;;;4952693;28;20085;-81
2021/04/04 14:46:41;;;;;;;16.50;9.82;;;18.20;57.20;;;;;;4955770;28;20056;-83
2021/04/04 14:49:08;;;;;;;16.10;10.13;;;18.30;57.30;;;;;;4953935;28;20050;-81
2021/04/04 14:51:35;;;;;;;20.85;10.68;;;18.30;57.10;;;;;;4969295;28;20379;-83
2021/04/04 14:54:01;;;;;;;16.23;9.98;;;18.40;57.10;;;;;;4987095;28;20482;-83
2021/04/04 14:56:27;;;;;;;19.80;10.77;;;18.50;57.10;;;;;;4953915;28;20045;-83
2021/04/04 14:58:53;;;;;;;17.98;9.88;;;18.50;56.90;;;;;;4953746;28;20070;-82
2021/04/04 15:01:20;;;;;;;19.58;11.00;;;18.60;56.90;;;;;;4949590;28;20070;-82
2021/04/04 15:03:47;;;;;;;17.20;10.00;;;18.70;57.00;;;;;;4980000;28;20097;-86
2021/04/04 15:06:13;;;;;;;19.50;10.23;;;18.80;57.00;;;;;;4986824;28;20049;-83
2021/04/04 15:08:39;;;;;;;15.80;9.82;;;18.90;56.90;;;;;;4987247;28;20042;-81
2021/04/04 15:11:06;;;;;;;23.58;9.32;;;18.90;56.70;;;;;;4969606;28;20525;-82
2021/04/04 15:13:32;;;;;;;15.30;9.82;;;19.00;56.70;;;;;;4971622;28;20081;-82
2021/04/04 15:15:59;;;;;;;21.13;10.30;;;19.10;56.80;;;;;;4973806;28;20050;-83
2021/04/04 15:18:25;;;;;;;17.48;8.93;;;19.20;56.70;;;;;;4957136;28;20042;-84
2021/04/04 15:20:52;;;;;;;18.45;9.88;;;19.20;56.50;;;;;;4990705;28;20109;-81
2021/04/04 15:23:18;;;;;;;19.10;9.25;;;19.20;56.40;;;;;;4990585;28;20132;-83
2021/04/04 15:25:45;;;;;;;13.68;8.80;;;19.20;56.20;;;;;;4991556;28;20120;-80
2021/04/04 15:28:11;;;;;;;14.20;9.02;;;19.30;56.30;;;;;;4974008;28;20329;-81
2021/04/04 15:30:40;;;;;;;18.90;8.85;;;19.30;56.20;;;;;;4991384;28;20042;-82
2021/04/04 15:33:07;;;;;;;14.95;8.85;;;19.40;56.20;;;;;;4973033;28;20525;-83
2021/04/04 15:35:38;;;;;;;17.63;8.88;;;19.40;56.00;;;;;;4990638;28;20397;-84
2021/04/04 15:38:05;;;;;;;12.45;7.85;;;19.40;55.90;;;;;;4972961;28;20042;-82
2021/04/04 15:40:33;;;;;;;14.82;8.63;;;19.50;56.00;;;;;;4991286;28;20035;-82
2021/04/04 15:42:59;;;;;;;17.23;7.90;;;19.50;55.80;;;;;;4973257;28;20505;-85
2021/04/04 15:45:26;;;;;;;12.15;7.72;;;19.60;55.90;;;;;;4992505;28;20030;-85
2021/04/04 15:47:55;;;;;;;15.75;8.85;;;19.60;55.80;;;;;;4992603;28;20038;-81
2021/04/04 15:50:23;;;;;;;15.50;8.18;;;19.60;55.60;;;;;;4975292;28;20405;-82
2021/04/04 15:52:50;;;;;;;14.18;9.13;;;19.70;55.70;;;;;;4996416;28;20134;-88
2021/04/04 15:55:17;;;;;;;15.02;8.77;;;19.70;55.60;;;;;;4991657;28;20422;-84
2021/04/04 15:57:43;;;;;;;15.85;9.05;;;19.70;55.40;;;;;;4972292;28;20129;-83
2021/04/04 16:00:13;;;;;;;14.02;8.88;;;19.70;55.40;;;;;;4990737;28;20050;-83
2021/04/04 16:02:40;;;;;;;15.48;9.23;;;19.70;55.20;;;;;;4990695;28;20050;-86
2021/04/04 16:05:07;;;;;;;22.08;10.88;;;19.70;55.20;;;;;;4989854;28;20070;-83
2021/04/04 16:07:36;;;;;;;16.30;10.60;;;19.70;55.10;;;;;;4989791;28;20069;-84
2021/04/04 16:10:20;;;;;;;14.65;9.98;;;19.70;55.00;;;;;;4990179;28;20034;-82
2021/04/04 16:12:47;;;;;;;20.58;10.68;;;19.70;55.00;;;;;;4989929;28;20382;-82
2021/04/04 16:15:15;;;;;;;14.90;9.68;;;19.70;54.90;;;;;;4972702;28;20125;-82
2021/04/04 16:17:42;;;;;;;14.15;9.70;;;19.70;55.40;;;;;;4989913;28;20050;-82
2021/04/04 16:20:09;;;;;;;17.58;9.60;;;19.80;54.90;;;;;;4956182;28;20042;-82
2021/04/04 16:22:35;;;;;;;18.10;9.90;;;19.70;54.60;;;;;;4972657;28;20050;-83
2021/04/04 16:25:01;;;;;;;20.10;9.98;;;19.80;54.70;;;;;;4972900;28;20092;-81
2021/04/04 16:27:27;;;;;;;21.17;9.82;;;19.70;54.10;;;;;;4985315;28;20046;-81
2021/04/04 16:29:53;;;;;;;19.50;10.00;;;19.60;54.00;;;;;;4950923;28;20046;-81
2021/04/04 16:32:20;;;;;;;16.05;8.45;;;19.50;53.90;;;;;;4977903;28;20050;-80
2021/04/04 16:34:46;;;;;;;15.02;9.40;;;19.50;54.00;;;;;;4956860;28;20650;-84
2021/04/04 16:37:12;;;;;;;25.98;10.02;;;19.50;54.00;;;;;;4957440;28;20080;-86
2021/04/04 16:40:21;;;;;;;29.02;11.07;;;19.50;53.60;;;;;;4991501;28;20319;-84
2021/04/04 16:42:51;;;;;;;26.08;11.23;;;19.30;53.00;;;;;;4972473;28;20556;-83
2021/04/04 16:45:17;;;;;;;24.15;10.63;;;19.20;52.80;;;;;;4973446;28;20039;-80
2021/04/04 16:47:43;;;;;;;32.00;11.20;;;19.00;52.50;;;;;;4990450;28;20467;-87
2021/04/04 16:50:10;;;;;;;23.55;9.85;;;18.80;52.30;;;;;;4991533;28;20058;-84
2021/04/04 16:52:36;;;;;;;22.88;9.98;;;18.60;52.00;;;;;;4957148;28;20150;-85
2021/04/04 16:55:03;;;;;;;21.05;9.27;;;18.40;51.80;;;;;;4957212;28;20041;-80
2021/04/04 16:57:31;;;;;;;21.58;9.63;;;18.30;51.70;;;;;;4971528;28;20048;-82
2021/04/04 17:00:03;;;;;;;25.33;9.63;;;18.20;51.50;;;;;;4971680;28;20042;-83
2021/04/04 17:03:05;;;;;;;28.58;10.05;;;18.10;51.50;;;;;;4971928;28;20469;-83
2021/04/04 17:05:33;;;;;;;31.13;9.98;;;17.90;51.10;;;;;;4942257;28;20531;-81
2021/04/04 17:08:04;;;;;;;29.00;9.88;;;17.80;51.20;;;;;;4971907;28;20093;-82
2021/04/04 17:11:19;;;;;;;24.20;9.77;;;17.60;50.90;;;;;;4941714;28;20125;-83
2021/04/04 17:14:27;;;;;;;26.08;9.98;;;17.40;50.60;;;;;;4947252;28;20050;-83
2021/04/04 17:16:56;;;;;;;24.38;9.07;;;17.20;50.50;;;;;;4971272;28;20053;-81
2021/04/04 17:19:22;;;;;;;25.73;9.32;;;17.00;50.50;;;;;;4955454;28;20392;-83
2021/04/04 17:21:49;;;;;;;29.48;10.95;;;16.90;50.50;;;;;;4955412;28;20067;-83
2021/04/04 17:24:17;;;;;;;27.35;9.57;;;16.80;50.50;;;;;;4970969;28;20066;-83
2021/04/04 17:26:43;;;;;;;31.65;10.20;;;16.60;50.30;;;;;;4939444;28;20057;-81
2021/04/04 17:29:10;;;;;;;18.23;8.50;;;16.50;50.30;;;;;;4954546;28;20625;-81
2021/04/04 17:31:37;;;;;;;22.60;7.88;;;16.40;50.40;;;;;;4970757;28;20401;-83
2021/04/04 17:34:04;;;;;;;20.45;9.55;;;16.30;50.40;;;;;;4955018;28;20042;-81
2021/04/04 17:36:31;;;;;;;22.77;9.05;;;16.10;50.30;;;;;;4969924;28;20061;-81
2021/04/04 17:38:57;;;;;;;27.23;9.27;;;16.00;50.30;;;;;;4971016;28;20049;-81
2021/04/04 17:41:23;;;;;;;32.97;10.00;;;16.00;50.50;;;;;;4954844;28;20560;-81
2021/04/04 17:43:49;;;;;;;29.67;9.80;;;15.90;50.50;;;;;;4939214;28;20486;-82
2021/04/04 17:46:15;;;;;;;28.23;8.50;;;15.80;50.50;;;;;;4955062;28;20038;-82
2021/04/04 17:48:42;;;;;;;21.27;9.25;;;15.70;50.40;;;;;;4973117;28;20124;-83
2021/04/04 17:51:09;;;;;;;22.13;8.93;;;15.60;50.40;;;;;;4956123;28;20038;-81
2021/04/04 17:53:35;;;;;;;30.08;9.18;;;15.50;50.40;;;;;;4935207;28;20074;-80
2021/04/04 17:56:02;;;;;;;23.42;9.20;;;15.40;50.50;;;;;;4951548;28;20039;-79
2021/04/04 17:58:28;;;;;;;27.67;10.43;;;15.30;50.50;;;;;;4952693;28;20035;-80
2021/04/04 18:00:54;;;;;;;19.70;8.85;;;15.30;50.70;;;;;;4953901;28;20038;-81
2021/04/04 18:03:23;;;;;;;31.77;9.20;;;15.10;50.50;;;;;;4953094;28;20445;-80
2021/04/04 18:13:32;;;;;;;17.20;8.20;;;14.80;50.70;;;;;;4972126;28;20047;-81
2021/04/04 18:16:00;;;;;;;27.67;8.70;;;14.70;50.70;;;;;;4951081;28;20042;-79
2021/04/04 18:18:27;;;;;;;27.08;9.38;;;14.60;50.60;;;;;;4956870;28;20046;-81
2021/04/04 18:20:58;;;;;;;25.48;8.50;;;14.60;50.80;;;;;;4955715;28;20045;-81
2021/04/04 18:23:26;;;;;;;27.42;8.60;;;14.50;50.90;;;;;;4924705;28;20048;-81
2021/04/04 18:25:53;;;;;;;20.30;8.25;;;14.40;50.90;;;;;;4954960;28;20042;-86
2021/04/04 18:28:20;;;;;;;14.50;7.05;;;14.30;51.00;;;;;;4954211;28;20069;-82
2021/04/04 18:30:47;;;;;;;23.75;8.43;;;14.20;51.10;;;;;;4970369;28;20038;-82
2021/04/04 18:33:14;;;;;;;17.10;8.88;;;14.20;51.40;;;;;;4970874;28;20042;-82
2021/04/04 18:35:42;;;;;;;16.05;7.63;;;14.20;51.70;;;;;;4953821;28;20478;-81
2021/04/04 18:38:09;;;;;;;18.23;7.72;;;14.20;51.90;;;;;;4954435;28;20042;-82
2021/04/04 18:40:37;;;;;;;20.98;8.00;;;14.10;51.90;;;;;;4954518;28;20069;-82
2021/04/04 18:43:05;;;;;;;26.15;8.35;;;14.10;52.00;;;;;;4955994;28;20065;-82
2021/04/04 18:45:32;;;;;;;16.17;6.60;;;14.00;51.90;;;;;;4956037;28;20050;-81
2021/04/04 18:47:59;;;;;;;13.77;6.60;;;13.90;51.90;;;;;;4955133;28;20490;-82
2021/04/04 18:50:27;;;;;;;14.18;7.65;;;13.90;52.10;;;;;;4967996;28;20436;-82
2021/04/04 18:52:53;;;;;;;16.17;7.80;;;13.80;52.00;;;;;;4952888;28;20128;-82
2021/04/04 18:55:21;;;;;;;11.25;7.15;;;13.70;52.00;;;;;;4966792;28;20035;-82
2021/04/04 18:57:47;;;;;;;13.38;7.25;;;13.60;51.90;;;;;;4937612;28;20042;-81
2021/04/04 19:00:16;;;;;;;15.25;6.60;;;13.60;52.10;;;;;;4970603;28;20038;-82
2021/04/04 19:02:44;;;;;;;17.88;6.78;;;13.50;52.60;;;;;;4939542;28;20058;-83
2021/04/04 19:05:13;;;;;;;17.85;7.85;;;13.40;52.00;;;;;;4937448;28;20520;-83
2021/04/04 19:07:45;;;;;;;11.63;6.85;;;13.40;52.10;;;;;;4954130;28;20054;-81
2021/04/04 19:10:14;;;;;;;14.57;7.15;;;13.20;51.90;;;;;;4973010;28;20037;-84
2021/04/04 19:12:40;;;;;;;15.35;6.40;;;13.20;52.10;;;;;;4956900;28;20090;-82
2021/04/04 19:15:08;;;;;;;12.70;6.90;;;13.10;52.00;;;;;;4971532;28;20045;-84
2021/04/04 19:17:36;;;;;;;15.93;7.90;;;13.00;52.00;;;;;;4954749;28;20051;-83
2021/04/04 19:20:05;;;;;;;17.15;7.13;;;13.00;52.20;;;;;;4951040;28;20235;-86
2021/04/04 19:22:31;;;;;;;13.63;6.95;;;12.90;52.20;;;;;;4967628;28;20066;-84
2021/04/04 19:24:58;;;;;;;13.85;6.97;;;12.80;52.70;;;;;;4969155;28;20030;-83
2021/04/04 19:27:25;;;;;;;15.18;7.07;;;12.80;52.80;;;;;;4954303;28;20051;-83
2021/04/04 19:29:52;;;;;;;14.57;7.18;;;12.70;52.20;;;;;;4955018;28;20489;-84
2021/04/04 19:32:18;;;;;;;14.80;6.57;;;12.60;52.20;;;;;;4955241;28;20066;-84
2021/04/04 19:34:45;;;;;;;14.32;6.72;;;12.60;52.30;;;;;;4952298;28;20039;-83
2021/04/04 19:37:13;;;;;;;9.77;5.97;;;12.50;52.30;;;;;;4953297;28;20464;-84
2021/04/04 19:39:41;;;;;;;14.85;6.97;;;12.50;52.40;;;;;;4963280;28;20039;-83